sensor_id;sensor_type;location;lat;lon;timestamp;P1;durP1;ratioP1;P2;durP2;ratioP2
46417;SDS011;69884;64.758;20.962;2023-06-22T00:53:16;13.90;;;12.50;;
46417;SDS011;69884;64.758;20.962;2023-06-22T02:48:16;14.63;;;13.13;;
46417;SDS011;69884;64.758;20.962;2023-06-22T04:49:32;9.95;;;9.05;;
46417;SDS011;69884;64.758;20.962;2023-06-22T04:52:03;13.55;;;10.18;;
46417;SDS011;69884;64.758;20.962;2023-06-22T04:54:29;11.07;;;9.98;;
46417;SDS011;69884;64.758;20.962;2023-06-22T04:56:54;11.20;;;10.03;;
46417;SDS011;69884;64.758;20.962;2023-06-22T04:59:22;12.27;;;10.20;;
46417;SDS011;69884;64.758;20.962;2023-06-22T05:01:54;11.40;;;10.30;;
46417;SDS011;69884;64.758;20.962;2023-06-22T05:04:19;11.87;;;10.50;;
46417;SDS011;69884;64.758;20.962;2023-06-22T05:06:45;11.23;;;9.88;;
46417;SDS011;69884;64.758;20.962;2023-06-22T05:09:10;11.60;;;10.40;;
46417;SDS011;69884;64.758;20.962;2023-06-22T05:11:37;11.90;;;10.65;;
46417;SDS011;69884;64.758;20.962;2023-06-22T05:14:03;11.70;;;10.50;;
46417;SDS011;69884;64.758;20.962;2023-06-22T05:16:28;11.63;;;10.25;;
46417;SDS011;69884;64.758;20.962;2023-06-22T05:18:54;10.77;;;9.65;;
46417;SDS011;69884;64.758;20.962;2023-06-22T05:21:23;11.10;;;9.45;;
46417;SDS011;69884;64.758;20.962;2023-06-22T05:23:49;11.40;;;9.82;;
46417;SDS011;69884;64.758;20.962;2023-06-22T05:26:14;10.50;;;9.30;;
46417;SDS011;69884;64.758;20.962;2023-06-22T05:28:39;10.83;;;9.73;;
46417;SDS011;69884;64.758;20.962;2023-06-22T05:31:05;10.33;;;9.30;;
46417;SDS011;69884;64.758;20.962;2023-06-22T05:33:30;12.17;;;10.23;;
46417;SDS011;69884;64.758;20.962;2023-06-22T05:35:55;10.70;;;9.60;;
46417;SDS011;69884;64.758;20.962;2023-06-22T05:38:23;10.27;;;9.18;;
46417;SDS011;69884;64.758;20.962;2023-06-22T05:40:48;10.00;;;8.93;;
46417;SDS011;69884;64.758;20.962;2023-06-22T05:43:13;11.03;;;9.90;;
46417;SDS011;69884;64.758;20.962;2023-06-22T05:45:39;10.67;;;9.57;;
46417;SDS011;69884;64.758;20.962;2023-06-22T05:48:04;10.30;;;9.20;;
46417;SDS011;69884;64.758;20.962;2023-06-22T05:50:30;11.83;;;9.40;;
46417;SDS011;69884;64.758;20.962;2023-06-22T05:52:55;10.57;;;9.47;;
46417;SDS011;69884;64.758;20.962;2023-06-22T05:55:21;10.13;;;9.13;;
46417;SDS011;69884;64.758;20.962;2023-06-22T05:57:46;13.60;;;9.20;;
46417;SDS011;69884;64.758;20.962;2023-06-22T06:00:17;10.07;;;8.97;;
46417;SDS011;69884;64.758;20.962;2023-06-22T06:02:43;10.00;;;9.00;;
46417;SDS011;69884;64.758;20.962;2023-06-22T06:05:12;10.50;;;9.40;;
46417;SDS011;69884;64.758;20.962;2023-06-22T06:07:41;9.82;;;8.82;;
46417;SDS011;69884;64.758;20.962;2023-06-22T06:19:59;10.70;;;9.60;;
46417;SDS011;69884;64.758;20.962;2023-06-22T06:59:15;11.57;;;10.37;;
46417;SDS011;69884;64.758;20.962;2023-06-22T07:01:41;11.35;;;10.10;;
46417;SDS011;69884;64.758;20.962;2023-06-22T07:04:06;11.07;;;9.98;;
46417;SDS011;69884;64.758;20.962;2023-06-22T07:06:32;12.10;;;9.80;;
46417;SDS011;69884;64.758;20.962;2023-06-22T07:08:58;11.55;;;9.90;;
46417;SDS011;69884;64.758;20.962;2023-06-22T07:17:31;12.43;;;10.18;;
46417;SDS011;69884;64.758;20.962;2023-06-22T07:22:47;10.93;;;9.57;;
46417;SDS011;69884;64.758;20.962;2023-06-22T07:25:13;13.02;;;9.90;;
46417;SDS011;69884;64.758;20.962;2023-06-22T07:27:46;11.52;;;9.20;;
46417;SDS011;69884;64.758;20.962;2023-06-22T07:30:11;9.98;;;8.90;;
46417;SDS011;69884;64.758;20.962;2023-06-22T07:35:42;9.80;;;8.80;;
46417;SDS011;69884;64.758;20.962;2023-06-22T07:38:23;9.95;;;9.00;;
46417;SDS011;69884;64.758;20.962;2023-06-22T07:40:49;9.40;;;8.60;;
46417;SDS011;69884;64.758;20.962;2023-06-22T07:43:16;9.68;;;8.68;;
46417;SDS011;69884;64.758;20.962;2023-06-22T07:45:41;9.20;;;8.30;;
46417;SDS011;69884;64.758;20.962;2023-06-22T07:48:22;9.82;;;8.65;;
46417;SDS011;69884;64.758;20.962;2023-06-22T07:50:56;9.27;;;8.45;;
46417;SDS011;69884;64.758;20.962;2023-06-22T08:03:04;8.52;;;7.75;;
46417;SDS011;69884;64.758;20.962;2023-06-22T08:05:45;9.20;;;8.17;;
46417;SDS011;69884;64.758;20.962;2023-06-22T08:11:28;9.02;;;8.10;;
46417;SDS011;69884;64.758;20.962;2023-06-22T08:14:04;9.80;;;8.82;;
46417;SDS011;69884;64.758;20.962;2023-06-22T08:19:40;9.18;;;8.25;;
46417;SDS011;69884;64.758;20.962;2023-06-22T08:25:13;9.82;;;8.63;;
46417;SDS011;69884;64.758;20.962;2023-06-22T08:27:46;8.75;;;7.95;;
46417;SDS011;69884;64.758;20.962;2023-06-22T08:30:20;10.02;;;8.85;;
46417;SDS011;69884;64.758;20.962;2023-06-22T08:35:52;9.43;;;8.52;;
46417;SDS011;69884;64.758;20.962;2023-06-22T08:41:34;9.77;;;8.25;;
46417;SDS011;69884;64.758;20.962;2023-06-22T08:44:05;9.73;;;8.73;;
46417;SDS011;69884;64.758;20.962;2023-06-22T08:46:30;9.57;;;8.65;;
46417;SDS011;69884;64.758;20.962;2023-06-22T08:48:59;9.93;;;8.07;;
46417;SDS011;69884;64.758;20.962;2023-06-22T08:51:30;9.25;;;8.30;;
46417;SDS011;69884;64.758;20.962;2023-06-22T08:54:06;9.80;;;8.65;;
46417;SDS011;69884;64.758;20.962;2023-06-22T08:56:32;10.43;;;7.95;;
46417;SDS011;69884;64.758;20.962;2023-06-22T08:59:29;9.95;;;8.45;;
46417;SDS011;69884;64.758;20.962;2023-06-22T09:01:55;9.27;;;8.37;;
46417;SDS011;69884;64.758;20.962;2023-06-22T09:04:21;10.15;;;9.15;;
46417;SDS011;69884;64.758;20.962;2023-06-22T09:06:49;13.57;;;8.82;;
46417;SDS011;69884;64.758;20.962;2023-06-22T09:09:17;9.07;;;8.25;;
46417;SDS011;69884;64.758;20.962;2023-06-22T09:11:42;9.90;;;8.90;;
46417;SDS011;69884;64.758;20.962;2023-06-22T09:14:11;9.77;;;8.77;;
46417;SDS011;69884;64.758;20.962;2023-06-22T09:16:36;9.95;;;8.95;;
46417;SDS011;69884;64.758;20.962;2023-06-22T09:19:11;10.33;;;9.27;;
46417;SDS011;69884;64.758;20.962;2023-06-22T09:21:39;9.68;;;8.70;;
46417;SDS011;69884;64.758;20.962;2023-06-22T09:24:05;9.63;;;8.80;;
46417;SDS011;69884;64.758;20.962;2023-06-22T09:26:33;10.40;;;9.40;;
46417;SDS011;69884;64.758;20.962;2023-06-22T09:28:58;10.27;;;9.23;;
46417;SDS011;69884;64.758;20.962;2023-06-22T09:31:27;9.97;;;8.97;;
46417;SDS011;69884;64.758;20.962;2023-06-22T09:33:53;10.80;;;9.80;;
46417;SDS011;69884;64.758;20.962;2023-06-22T09:36:21;10.67;;;9.67;;
46417;SDS011;69884;64.758;20.962;2023-06-22T09:38:47;11.07;;;10.07;;
46417;SDS011;69884;64.758;20.962;2023-06-22T09:41:12;10.80;;;9.73;;
46417;SDS011;69884;64.758;20.962;2023-06-22T09:43:37;11.20;;;10.10;;
46417;SDS011;69884;64.758;20.962;2023-06-22T09:46:03;10.67;;;9.67;;
46417;SDS011;69884;64.758;20.962;2023-06-22T09:48:29;11.37;;;10.27;;
46417;SDS011;69884;64.758;20.962;2023-06-22T09:50:59;10.60;;;9.50;;
46417;SDS011;69884;64.758;20.962;2023-06-22T09:53:28;10.45;;;9.43;;
46417;SDS011;69884;64.758;20.962;2023-06-22T09:56:13;9.85;;;8.88;;
46417;SDS011;69884;64.758;20.962;2023-06-22T09:58:41;9.98;;;8.98;;
46417;SDS011;69884;64.758;20.962;2023-06-22T10:01:22;9.57;;;8.77;;
46417;SDS011;69884;64.758;20.962;2023-06-22T10:03:48;9.65;;;8.63;;
46417;SDS011;69884;64.758;20.962;2023-06-22T10:06:14;10.50;;;9.40;;
46417;SDS011;69884;64.758;20.962;2023-06-22T10:11:31;9.48;;;8.48;;
46417;SDS011;69884;64.758;20.962;2023-06-22T10:14:02;8.88;;;7.97;;
46417;SDS011;69884;64.758;20.962;2023-06-22T10:16:48;9.88;;;8.80;;
46417;SDS011;69884;64.758;20.962;2023-06-22T10:19:15;9.38;;;8.40;;
46417;SDS011;69884;64.758;20.962;2023-06-22T10:49:17;8.68;;;7.80;;
46417;SDS011;69884;64.758;20.962;2023-06-22T10:52:00;8.32;;;7.53;;
46417;SDS011;69884;64.758;20.962;2023-06-22T10:54:41;9.53;;;8.53;;
46417;SDS011;69884;64.758;20.962;2023-06-22T11:09:52;9.40;;;8.40;;
46417;SDS011;69884;64.758;20.962;2023-06-22T11:21:23;9.30;;;8.40;;
46417;SDS011;69884;64.758;20.962;2023-06-22T11:26:51;10.00;;;9.10;;
46417;SDS011;69884;64.758;20.962;2023-06-22T11:29:19;10.37;;;9.27;;
46417;SDS011;69884;64.758;20.962;2023-06-22T11:32:01;11.73;;;9.20;;
46417;SDS011;69884;64.758;20.962;2023-06-22T11:34:46;10.98;;;9.88;;
46417;SDS011;69884;64.758;20.962;2023-06-22T11:37:12;10.80;;;9.70;;
46417;SDS011;69884;64.758;20.962;2023-06-22T11:39:46;11.30;;;9.50;;
46417;SDS011;69884;64.758;20.962;2023-06-22T11:42:25;10.88;;;9.77;;
46417;SDS011;69884;64.758;20.962;2023-06-22T11:44:50;12.77;;;9.63;;
46417;SDS011;69884;64.758;20.962;2023-06-22T11:47:18;11.67;;;10.13;;
46417;SDS011;69884;64.758;20.962;2023-06-22T11:49:53;10.80;;;9.25;;
46417;SDS011;69884;64.758;20.962;2023-06-22T11:58:43;13.88;;;9.73;;
46417;SDS011;69884;64.758;20.962;2023-06-22T12:01:26;10.83;;;9.70;;
46417;SDS011;69884;64.758;20.962;2023-06-22T12:03:59;10.25;;;9.15;;
46417;SDS011;69884;64.758;20.962;2023-06-22T12:06:25;13.10;;;9.07;;
46417;SDS011;69884;64.758;20.962;2023-06-22T12:08:50;10.73;;;9.03;;
46417;SDS011;69884;64.758;20.962;2023-06-22T12:11:18;18.83;;;17.00;;
46417;SDS011;69884;64.758;20.962;2023-06-22T12:13:53;13.27;;;9.50;;
46417;SDS011;69884;64.758;20.962;2023-06-22T12:16:18;9.80;;;8.80;;
46417;SDS011;69884;64.758;20.962;2023-06-22T12:18:46;10.00;;;8.68;;
46417;SDS011;69884;64.758;20.962;2023-06-22T12:21:24;10.48;;;8.38;;
46417;SDS011;69884;64.758;20.962;2023-06-22T12:23:50;10.73;;;8.82;;
46417;SDS011;69884;64.758;20.962;2023-06-22T12:26:15;11.10;;;9.13;;
46417;SDS011;69884;64.758;20.962;2023-06-22T12:28:47;10.17;;;9.07;;
46417;SDS011;69884;64.758;20.962;2023-06-22T12:31:38;11.33;;;10.13;;
46417;SDS011;69884;64.758;20.962;2023-06-22T12:37:10;13.38;;;10.40;;
46417;SDS011;69884;64.758;20.962;2023-06-22T12:39:58;12.82;;;11.20;;
46417;SDS011;69884;64.758;20.962;2023-06-22T12:42:32;14.15;;;11.05;;
46417;SDS011;69884;64.758;20.962;2023-06-22T12:45:01;12.45;;;10.88;;
46417;SDS011;69884;64.758;20.962;2023-06-22T12:47:26;11.87;;;10.50;;
46417;SDS011;69884;64.758;20.962;2023-06-22T12:49:51;12.03;;;10.73;;
46417;SDS011;69884;64.758;20.962;2023-06-22T12:52:17;11.77;;;10.67;;
46417;SDS011;69884;64.758;20.962;2023-06-22T12:54:42;12.07;;;10.37;;
46417;SDS011;69884;64.758;20.962;2023-06-22T12:57:10;12.60;;;11.27;;
46417;SDS011;69884;64.758;20.962;2023-06-22T12:59:38;14.23;;;11.40;;
46417;SDS011;69884;64.758;20.962;2023-06-22T13:02:04;12.73;;;11.43;;
46417;SDS011;69884;64.758;20.962;2023-06-22T13:04:29;14.50;;;10.93;;
46417;SDS011;69884;64.758;20.962;2023-06-22T13:06:54;12.70;;;11.50;;
46417;SDS011;69884;64.758;20.962;2023-06-22T13:09:20;12.93;;;11.57;;
46417;SDS011;69884;64.758;20.962;2023-06-22T13:11:54;12.30;;;11.03;;
46417;SDS011;69884;64.758;20.962;2023-06-22T13:14:45;13.98;;;12.00;;
46417;SDS011;69884;64.758;20.962;2023-06-22T13:17:19;13.52;;;12.27;;
46417;SDS011;69884;64.758;20.962;2023-06-22T13:20:00;13.63;;;12.25;;
46417;SDS011;69884;64.758;20.962;2023-06-22T13:22:35;16.17;;;12.33;;
46417;SDS011;69884;64.758;20.962;2023-06-22T13:25:05;15.57;;;11.50;;
46417;SDS011;69884;64.758;20.962;2023-06-22T13:27:31;13.40;;;11.02;;
46417;SDS011;69884;64.758;20.962;2023-06-22T13:30:05;13.02;;;11.07;;
46417;SDS011;69884;64.758;20.962;2023-06-22T13:32:31;12.48;;;11.25;;
46417;SDS011;69884;64.758;20.962;2023-06-22T13:34:56;13.23;;;11.40;;
46417;SDS011;69884;64.758;20.962;2023-06-22T13:37:21;13.60;;;11.27;;
46417;SDS011;69884;64.758;20.962;2023-06-22T13:39:47;12.40;;;11.10;;
46417;SDS011;69884;64.758;20.962;2023-06-22T13:42:12;12.88;;;11.40;;
46417;SDS011;69884;64.758;20.962;2023-06-22T13:44:43;12.52;;;11.30;;
46417;SDS011;69884;64.758;20.962;2023-06-22T13:47:08;12.88;;;11.32;;
46417;SDS011;69884;64.758;20.962;2023-06-22T13:49:34;15.27;;;11.50;;
46417;SDS011;69884;64.758;20.962;2023-06-22T13:51:59;14.03;;;11.50;;
46417;SDS011;69884;64.758;20.962;2023-06-22T13:54:37;12.75;;;11.43;;
46417;SDS011;69884;64.758;20.962;2023-06-22T13:57:08;13.88;;;11.68;;
46417;SDS011;69884;64.758;20.962;2023-06-22T13:59:34;12.48;;;11.27;;
46417;SDS011;69884;64.758;20.962;2023-06-22T14:01:59;12.23;;;10.63;;
46417;SDS011;69884;64.758;20.962;2023-06-22T14:04:25;11.93;;;10.73;;
46417;SDS011;69884;64.758;20.962;2023-06-22T14:06:51;11.97;;;10.77;;
46417;SDS011;69884;64.758;20.962;2023-06-22T14:09:16;11.40;;;10.40;;
46417;SDS011;69884;64.758;20.962;2023-06-22T14:11:44;11.23;;;10.13;;
46417;SDS011;69884;64.758;20.962;2023-06-22T14:17:07;12.68;;;10.30;;
46417;SDS011;69884;64.758;20.962;2023-06-22T14:19:35;12.07;;;10.75;;
46417;SDS011;69884;64.758;20.962;2023-06-22T14:22:00;12.53;;;10.90;;
46417;SDS011;69884;64.758;20.962;2023-06-22T14:24:26;12.77;;;11.40;;
46417;SDS011;69884;64.758;20.962;2023-06-22T14:26:51;13.63;;;11.30;;
46417;SDS011;69884;64.758;20.962;2023-06-22T14:29:19;14.67;;;11.60;;
46417;SDS011;69884;64.758;20.962;2023-06-22T14:31:52;14.43;;;11.63;;
46417;SDS011;69884;64.758;20.962;2023-06-22T14:34:20;12.98;;;11.65;;
46417;SDS011;69884;64.758;20.962;2023-06-22T14:36:45;13.23;;;11.75;;
46417;SDS011;69884;64.758;20.962;2023-06-22T14:39:44;13.65;;;11.60;;
46417;SDS011;69884;64.758;20.962;2023-06-22T14:42:04;12.65;;;11.45;;
46417;SDS011;69884;64.758;20.962;2023-06-22T14:44:30;12.40;;;11.20;;
46417;SDS011;69884;64.758;20.962;2023-06-22T14:47:05;12.50;;;11.25;;
46417;SDS011;69884;64.758;20.962;2023-06-22T14:49:33;12.90;;;11.57;;
46417;SDS011;69884;64.758;20.962;2023-06-22T14:52:12;12.82;;;11.52;;
46417;SDS011;69884;64.758;20.962;2023-06-22T14:54:41;13.02;;;11.70;;
46417;SDS011;69884;64.758;20.962;2023-06-22T14:57:09;13.05;;;11.55;;
46417;SDS011;69884;64.758;20.962;2023-06-22T14:59:45;12.57;;;11.27;;
46417;SDS011;69884;64.758;20.962;2023-06-22T15:05:16;12.77;;;11.30;;
46417;SDS011;69884;64.758;20.962;2023-06-22T15:10:17;13.07;;;11.68;;
46417;SDS011;69884;64.758;20.962;2023-06-22T15:12:42;13.27;;;11.43;;
46417;SDS011;69884;64.758;20.962;2023-06-22T15:15:08;12.48;;;11.27;;
46417;SDS011;69884;64.758;20.962;2023-06-22T15:17:33;13.35;;;11.30;;
46417;SDS011;69884;64.758;20.962;2023-06-22T15:19:58;12.03;;;10.83;;
46417;SDS011;69884;64.758;20.962;2023-06-22T15:22:24;12.07;;;10.50;;
46417;SDS011;69884;64.758;20.962;2023-06-22T15:24:49;11.70;;;10.57;;
46417;SDS011;69884;64.758;20.962;2023-06-22T15:27:16;11.87;;;10.77;;
46417;SDS011;69884;64.758;20.962;2023-06-22T15:29:44;12.50;;;11.30;;
46417;SDS011;69884;64.758;20.962;2023-06-22T15:32:12;15.65;;;11.50;;
46417;SDS011;69884;64.758;20.962;2023-06-22T15:34:38;12.63;;;11.33;;
46417;SDS011;69884;64.758;20.962;2023-06-22T15:37:03;12.23;;;10.87;;
46417;SDS011;69884;64.758;20.962;2023-06-22T15:39:28;11.90;;;10.70;;
46417;SDS011;69884;64.758;20.962;2023-06-22T15:41:54;12.80;;;11.50;;
46417;SDS011;69884;64.758;20.962;2023-06-22T15:44:20;12.67;;;11.20;;
46417;SDS011;69884;64.758;20.962;2023-06-22T15:46:45;12.68;;;11.48;;
46417;SDS011;69884;64.758;20.962;2023-06-22T15:49:11;13.40;;;12.10;;
46417;SDS011;69884;64.758;20.962;2023-06-22T15:51:36;13.30;;;11.77;;
46417;SDS011;69884;64.758;20.962;2023-06-22T15:54:01;13.23;;;11.83;;
46417;SDS011;69884;64.758;20.962;2023-06-22T15:56:27;14.43;;;11.50;;
46417;SDS011;69884;64.758;20.962;2023-06-22T15:58:52;13.03;;;11.63;;
46417;SDS011;69884;64.758;20.962;2023-06-22T16:01:17;13.80;;;12.10;;
46417;SDS011;69884;64.758;20.962;2023-06-22T16:03:43;16.00;;;12.30;;
46417;SDS011;69884;64.758;20.962;2023-06-22T16:06:08;13.60;;;11.97;;
46417;SDS011;69884;64.758;20.962;2023-06-22T16:08:33;14.77;;;12.17;;
46417;SDS011;69884;64.758;20.962;2023-06-22T16:10:59;13.40;;;12.00;;
46417;SDS011;69884;64.758;20.962;2023-06-22T16:13:24;16.13;;;12.90;;
46417;SDS011;69884;64.758;20.962;2023-06-22T16:15:50;15.63;;;12.60;;
46417;SDS011;69884;64.758;20.962;2023-06-22T16:18:15;15.47;;;13.53;;
46417;SDS011;69884;64.758;20.962;2023-06-22T16:20:41;18.77;;;13.60;;
46417;SDS011;69884;64.758;20.962;2023-06-22T16:23:06;16.52;;;13.35;;
46417;SDS011;69884;64.758;20.962;2023-06-22T16:25:31;14.90;;;13.07;;
46417;SDS011;69884;64.758;20.962;2023-06-22T16:27:57;16.60;;;13.05;;
46417;SDS011;69884;64.758;20.962;2023-06-22T16:30:22;15.23;;;12.82;;
46417;SDS011;69884;64.758;20.962;2023-06-22T16:32:52;15.35;;;13.13;;
46417;SDS011;69884;64.758;20.962;2023-06-22T16:35:18;16.05;;;12.88;;
46417;SDS011;69884;64.758;20.962;2023-06-22T16:37:44;62.50;;;22.83;;
46417;SDS011;69884;64.758;20.962;2023-06-22T16:40:09;27.70;;;16.13;;
46417;SDS011;69884;64.758;20.962;2023-06-22T16:42:37;27.52;;;14.98;;
46417;SDS011;69884;64.758;20.962;2023-06-22T16:45:03;15.30;;;12.90;;
46417;SDS011;69884;64.758;20.962;2023-06-22T16:47:28;15.47;;;12.97;;
46417;SDS011;69884;64.758;20.962;2023-06-22T16:49:54;16.20;;;13.38;;
46417;SDS011;69884;64.758;20.962;2023-06-22T16:52:20;16.20;;;13.27;;
46417;SDS011;69884;64.758;20.962;2023-06-22T16:54:46;16.27;;;12.80;;
46417;SDS011;69884;64.758;20.962;2023-06-22T16:57:12;16.03;;;13.60;;
46417;SDS011;69884;64.758;20.962;2023-06-22T16:59:38;17.50;;;13.77;;
46417;SDS011;69884;64.758;20.962;2023-06-22T17:02:04;14.37;;;12.87;;
46417;SDS011;69884;64.758;20.962;2023-06-22T17:04:30;16.88;;;12.52;;
46417;SDS011;69884;64.758;20.962;2023-06-22T17:07:04;16.60;;;12.27;;
46417;SDS011;69884;64.758;20.962;2023-06-22T17:09:32;15.68;;;12.43;;
46417;SDS011;69884;64.758;20.962;2023-06-22T17:11:58;15.27;;;12.57;;
46417;SDS011;69884;64.758;20.962;2023-06-22T17:14:24;14.00;;;12.40;;
46417;SDS011;69884;64.758;20.962;2023-06-22T17:16:49;14.70;;;12.23;;
46417;SDS011;69884;64.758;20.962;2023-06-22T17:19:15;17.80;;;12.82;;
46417;SDS011;69884;64.758;20.962;2023-06-22T17:21:40;15.00;;;13.07;;
46417;SDS011;69884;64.758;20.962;2023-06-22T17:24:07;16.08;;;12.77;;
46417;SDS011;69884;64.758;20.962;2023-06-22T17:26:32;14.50;;;12.93;;
46417;SDS011;69884;64.758;20.962;2023-06-22T17:28:57;15.30;;;12.83;;
46417;SDS011;69884;64.758;20.962;2023-06-22T17:31:36;15.18;;;12.35;;
46417;SDS011;69884;64.758;20.962;2023-06-22T17:34:07;18.27;;;12.45;;
46417;SDS011;69884;64.758;20.962;2023-06-22T17:36:32;14.33;;;12.70;;
46417;SDS011;69884;64.758;20.962;2023-06-22T17:39:00;15.60;;;12.60;;
46417;SDS011;69884;64.758;20.962;2023-06-22T17:41:32;13.98;;;12.52;;
46417;SDS011;69884;64.758;20.962;2023-06-22T17:43:58;14.23;;;12.75;;
46417;SDS011;69884;64.758;20.962;2023-06-22T17:46:24;14.25;;;12.38;;
46417;SDS011;69884;64.758;20.962;2023-06-22T17:48:50;12.80;;;11.32;;
46417;SDS011;69884;64.758;20.962;2023-06-22T17:51:16;13.52;;;12.05;;
46417;SDS011;69884;64.758;20.962;2023-06-22T17:53:49;14.07;;;12.45;;
46417;SDS011;69884;64.758;20.962;2023-06-22T17:56:15;14.20;;;12.70;;
46417;SDS011;69884;64.758;20.962;2023-06-22T17:58:49;13.37;;;11.97;;
46417;SDS011;69884;64.758;20.962;2023-06-22T18:01:14;13.75;;;11.40;;
46417;SDS011;69884;64.758;20.962;2023-06-22T18:03:40;13.70;;;12.27;;
46417;SDS011;69884;64.758;20.962;2023-06-22T18:06:05;13.67;;;12.27;;
46417;SDS011;69884;64.758;20.962;2023-06-22T18:08:31;14.80;;;12.23;;
46417;SDS011;69884;64.758;20.962;2023-06-22T18:10:56;13.05;;;11.68;;
46417;SDS011;69884;64.758;20.962;2023-06-22T18:13:22;13.23;;;11.75;;
46417;SDS011;69884;64.758;20.962;2023-06-22T18:15:48;14.60;;;12.70;;
46417;SDS011;69884;64.758;20.962;2023-06-22T18:18:15;14.00;;;12.63;;
46417;SDS011;69884;64.758;20.962;2023-06-22T18:20:41;13.23;;;11.87;;
46417;SDS011;69884;64.758;20.962;2023-06-22T18:23:08;13.35;;;12.05;;
46417;SDS011;69884;64.758;20.962;2023-06-22T18:25:33;14.13;;;12.68;;
46417;SDS011;69884;64.758;20.962;2023-06-22T18:27:59;13.75;;;12.43;;
46417;SDS011;69884;64.758;20.962;2023-06-22T18:30:25;14.65;;;12.15;;
46417;SDS011;69884;64.758;20.962;2023-06-22T18:32:51;14.47;;;12.97;;
46417;SDS011;69884;64.758;20.962;2023-06-22T18:35:16;13.50;;;12.23;;
46417;SDS011;69884;64.758;20.962;2023-06-22T18:37:41;14.30;;;12.90;;
46417;SDS011;69884;64.758;20.962;2023-06-22T18:40:08;14.40;;;12.85;;
46417;SDS011;69884;64.758;20.962;2023-06-22T18:42:44;13.98;;;12.68;;
46417;SDS011;69884;64.758;20.962;2023-06-22T18:45:23;14.25;;;12.82;;
46417;SDS011;69884;64.758;20.962;2023-06-22T18:48:22;14.27;;;12.80;;
46417;SDS011;69884;64.758;20.962;2023-06-22T18:50:44;13.18;;;11.90;;
46417;SDS011;69884;64.758;20.962;2023-06-22T18:55:41;13.18;;;11.88;;
46417;SDS011;69884;64.758;20.962;2023-06-22T18:58:17;12.90;;;11.60;;
46417;SDS011;69884;64.758;20.962;2023-06-22T19:00:44;13.60;;;12.30;;
46417;SDS011;69884;64.758;20.962;2023-06-22T19:03:09;13.67;;;12.27;;
46417;SDS011;69884;64.758;20.962;2023-06-22T19:05:46;13.75;;;12.45;;
46417;SDS011;69884;64.758;20.962;2023-06-22T19:08:12;13.80;;;12.40;;
46417;SDS011;69884;64.758;20.962;2023-06-22T19:10:42;13.35;;;12.05;;
46417;SDS011;69884;64.758;20.962;2023-06-22T19:13:26;13.35;;;11.98;;
46417;SDS011;69884;64.758;20.962;2023-06-22T19:16:02;14.20;;;12.80;;
46417;SDS011;69884;64.758;20.962;2023-06-22T19:18:36;13.35;;;11.98;;
46417;SDS011;69884;64.758;20.962;2023-06-22T19:21:02;14.55;;;13.15;;
46417;SDS011;69884;64.758;20.962;2023-06-22T19:25:53;14.27;;;12.87;;
46417;SDS011;69884;64.758;20.962;2023-06-22T19:28:26;15.02;;;13.52;;
46417;SDS011;69884;64.758;20.962;2023-06-22T19:30:53;14.73;;;13.23;;
46417;SDS011;69884;64.758;20.962;2023-06-22T19:33:18;14.63;;;13.38;;
46417;SDS011;69884;64.758;20.962;2023-06-22T19:35:44;14.90;;;13.50;;
46417;SDS011;69884;64.758;20.962;2023-06-22T19:38:10;16.37;;;14.80;;
46417;SDS011;69884;64.758;20.962;2023-06-22T19:40:41;15.67;;;14.13;;
46417;SDS011;69884;64.758;20.962;2023-06-22T19:43:06;16.25;;;14.57;;
46417;SDS011;69884;64.758;20.962;2023-06-22T19:45:40;16.40;;;14.70;;
46417;SDS011;69884;64.758;20.962;2023-06-22T19:48:12;15.33;;;13.97;;
46417;SDS011;69884;64.758;20.962;2023-06-22T19:50:38;15.77;;;14.38;;
46417;SDS011;69884;64.758;20.962;2023-06-22T19:53:08;16.57;;;14.90;;
46417;SDS011;69884;64.758;20.962;2023-06-22T19:55:39;16.38;;;14.88;;
46417;SDS011;69884;64.758;20.962;2023-06-22T19:58:06;15.50;;;14.00;;
46417;SDS011;69884;64.758;20.962;2023-06-22T20:00:31;15.03;;;13.63;;
46417;SDS011;69884;64.758;20.962;2023-06-22T20:02:59;15.57;;;13.98;;
46417;SDS011;69884;64.758;20.962;2023-06-22T20:05:25;15.87;;;14.37;;
46417;SDS011;69884;64.758;20.962;2023-06-22T20:07:50;16.23;;;14.63;;
46417;SDS011;69884;64.758;20.962;2023-06-22T20:10:17;17.67;;;15.97;;
46417;SDS011;69884;64.758;20.962;2023-06-22T20:12:46;16.77;;;15.25;;
46417;SDS011;69884;64.758;20.962;2023-06-22T20:15:13;16.00;;;14.50;;
46417;SDS011;69884;64.758;20.962;2023-06-22T20:17:41;16.58;;;14.98;;
46417;SDS011;69884;64.758;20.962;2023-06-22T20:20:24;16.17;;;14.57;;
46417;SDS011;69884;64.758;20.962;2023-06-22T20:22:49;16.83;;;15.13;;
46417;SDS011;69884;64.758;20.962;2023-06-22T20:25:24;16.63;;;14.93;;
46417;SDS011;69884;64.758;20.962;2023-06-22T20:27:56;17.33;;;15.60;;
46417;SDS011;69884;64.758;20.962;2023-06-22T20:30:31;16.05;;;14.45;;
46417;SDS011;69884;64.758;20.962;2023-06-22T20:33:22;17.52;;;15.65;;
46417;SDS011;69884;64.758;20.962;2023-06-22T20:35:56;18.23;;;16.52;;
46417;SDS011;69884;64.758;20.962;2023-06-22T20:38:25;20.15;;;18.15;;
46417;SDS011;69884;64.758;20.962;2023-06-22T20:40:54;20.25;;;18.33;;
46417;SDS011;69884;64.758;20.962;2023-06-22T20:52:39;19.77;;;17.88;;
46417;SDS011;69884;64.758;20.962;2023-06-22T20:55:35;22.33;;;20.23;;
46417;SDS011;69884;64.758;20.962;2023-06-22T21:53:57;31.83;;;28.83;;
46417;SDS011;69884;64.758;20.962;2023-06-22T22:03:27;31.87;;;28.93;;
46417;SDS011;69884;64.758;20.962;2023-06-22T22:12:20;34.47;;;31.17;;
46417;SDS011;69884;64.758;20.962;2023-06-22T22:15:29;35.70;;;32.23;;
46417;SDS011;69884;64.758;20.962;2023-06-22T22:18:05;35.25;;;31.88;;
46417;SDS011;69884;64.758;20.962;2023-06-22T22:20:39;33.47;;;30.20;;
46417;SDS011;69884;64.758;20.962;2023-06-22T22:23:17;37.83;;;34.13;;
46417;SDS011;69884;64.758;20.962;2023-06-22T22:25:46;34.75;;;31.25;;
46417;SDS011;69884;64.758;20.962;2023-06-22T22:28:37;30.27;;;27.35;;
46417;SDS011;69884;64.758;20.962;2023-06-22T22:31:05;26.73;;;24.13;;
46417;SDS011;69884;64.758;20.962;2023-06-22T22:51:44;25.70;;;23.20;;
46417;SDS011;69884;64.758;20.962;2023-06-22T22:54:27;25.73;;;23.33;;
46417;SDS011;69884;64.758;20.962;2023-06-22T22:56:53;25.02;;;22.58;;
46417;SDS011;69884;64.758;20.962;2023-06-22T22:59:18;29.05;;;26.25;;
46417;SDS011;69884;64.758;20.962;2023-06-22T23:01:43;29.10;;;26.27;;
46417;SDS011;69884;64.758;20.962;2023-06-22T23:04:09;32.73;;;29.43;;
46417;SDS011;69884;64.758;20.962;2023-06-22T23:06:35;26.55;;;24.02;;
46417;SDS011;69884;64.758;20.962;2023-06-22T23:09:06;25.48;;;23.13;;
46417;SDS011;69884;64.758;20.962;2023-06-22T23:11:38;28.75;;;25.95;;
46417;SDS011;69884;64.758;20.962;2023-06-22T23:14:04;30.52;;;27.63;;
46417;SDS011;69884;64.758;20.962;2023-06-22T23:16:29;34.37;;;30.87;;
46417;SDS011;69884;64.758;20.962;2023-06-22T23:19:10;30.33;;;27.35;;
46417;SDS011;69884;64.758;20.962;2023-06-22T23:21:39;31.97;;;28.90;;
46417;SDS011;69884;64.758;20.962;2023-06-22T23:24:22;35.50;;;31.98;;
46417;SDS011;69884;64.758;20.962;2023-06-22T23:29:45;32.90;;;29.70;;